ADDS METAR Data INFO
IDs: Format: Raw Decoded Include TAF

Data at: 2259 UTC 16 Jan 2018

KGSH 162253Z AUTO 21005KT 9SM CLR M16/M17 A3046 RMK AO2 SLP337 T11561172
KGSH 162202Z AUTO 22006KT 10SM SCT016 M14/M17 A3046 RMK AO2 T11391172
KGSH 162153Z AUTO 22006KT 9SM BKN016 M14/M17 A3046 RMK AO2 SLP335 T11391172
KGSH 162053Z AUTO 22008KT 6SM HZ OVC017 M13/M17 A3044 RMK AO2 SLP328 60000 T11281167 53006
KGSH 161953Z AUTO 20009KT 5SM HZ BKN016 OVC031 M13/M17 A3043 RMK AO2 SNE07 SLP324 P0000 T11331172
KGSH 161943Z AUTO 23009KT 8SM BKN016 OVC032 M13/M17 A3042 RMK AO2 SNE07 P0000 T11331172
KGSH 161901Z AUTO 22010KT 4SM -SN BKN030 OVC037 M14/M17 A3042 RMK AO2 P0000 T11391172
KGSH 161853Z AUTO 22010KT 2 1/2SM -SN BKN028 OVC037 M14/M18 A3042 RMK AO2 SLP322 P0000 T11391178
KGSH 161825Z AUTO 23007G18KT 2 1/2SM -SN SCT041 OVC055 M14/M17 A3042 RMK AO2 P0000 T11391172
KGSH 161753Z AUTO 23009KT 4SM -SN FEW043 OVC050 M14/M18 A3042 RMK AO2 SNB46 SLP321 P0000 60000 T11441178 11144 21189 58006
KGSH 161653Z AUTO 23010G17KT 10SM BKN048 OVC055 M15/M18 A3044 RMK AO2 SLP328 T11501183
KGSH 161553Z AUTO 22009KT 10SM SCT013 M16/M19 A3044 RMK AO2 SLP328 T11611194
KGSH 161453Z AUTO 21007KT 5SM HZ BKN014 M17/M21 A3044 RMK AO2 SLP328 T11721206 53013
KGSH 161353Z AUTO 21005KT 10SM CLR M19/M21 A3042 RMK AO2 SLP321 T11891211
KGSH 161253Z AUTO 21008KT 10SM BKN038 BKN047 M18/M21 A3041 RMK AO2 SLP318 T11831211
KGSH 161153Z AUTO 23010KT 10SM OVC044 M17/M20 A3040 RMK AO2 SLP312 70001 T11721200 11156 21189 53012
KGSH 161053Z AUTO 21006KT 10SM OVC042 M18/M21 A3038 RMK AO2 SLP307 T11781206
KGSH 160953Z AUTO 21009KT 10SM OVC043 M18/M21 A3037 RMK AO2 SLP303 T11781206
KGSH 160853Z AUTO 22006KT 10SM BKN042 M19/M21 A3036 RMK AO2 SLP299 T11891211 53007
KGSH 160753Z AUTO 24009KT 10SM CLR M18/M20 A3036 RMK AO2 SLP298 T11781200
KGSH 160653Z AUTO 23008KT 10SM CLR M17/M19 A3035 RMK AO2 SLP294 T11671194
KGSH 160613Z AUTO 24012KT 10SM FEW014 SCT019 BKN045 M16/M19 A3034 RMK AO2 T11611189
KGSH 160553Z AUTO 23013G21KT 9SM OVC015 M15/M18 A3034 RMK AO2 SNE0456 SLP291 P0000 60000 T11501183 11083 21150 51012
KGSH 160453Z AUTO 23012G24KT 4SM -SN OVC016 M13/M16 A3034 RMK AO2 SNB40 SLP289 P0000 T11331161 410501133
KGSH 160353Z AUTO 25011KT 9SM OVC017 M12/M16 A3032 RMK AO2 SLP284 T11221156
KGSH 160327Z AUTO 26009KT 10SM BKN017 OVC048 M12/M16 A3031 RMK AO2 T11221156
KGSH 160253Z AUTO 25014KT 10SM SCT024 OVC048 M11/M15 A3031 RMK AO2 PK WND 23027/0208 SLP278 60000 T11111150 51022
KGSH 160153Z AUTO 24014KT 10SM OVC018 M10/M14 A3029 RMK AO2 SLP273 T11001139
KGSH 160114Z AUTO 25014KT 10SM OVC018 M10/M13 A3028 RMK AO2 T11001133
KGSH 160053Z AUTO 26014G21KT 9SM OVC013 M10/M13 A3027 RMK AO2 SNE33 SLP267 P0000 T11001128
KGSH 152353Z AUTO 26016KT 4SM -SN BKN013 OVC019 M08/M11 A3024 RMK AO2 WSHFT 2300 UPB17E26SNE17B26E28B44 SLP254 P0000 60000 T10781106 11050 21078 53025
KGSH 152342Z AUTO 25016KT 6SM BR BKN013 OVC019 M08/M10 A3023 RMK AO2 WSHFT 2300 UPB17E26SNE17B26E28 P0000 T10781100
KGSH 152323Z AUTO 25014KT 6SM UP SCT009 OVC015 M07/M09 A3022 RMK AO2 WSHFT 2300 UPB17SNE17 P0000 T10671094
KGSH 152314Z AUTO 24016KT 3SM -SN BR OVC011 M07/M09 A3022 RMK AO2 WSHFT 2300 P0000 T10671089
KGSH 152300Z AUTO 20012KT 4SM -SN BR BKN009 OVC014 M05/M07 A3020 RMK AO2 P0000 T10501067
KGSH 152253Z AUTO 19006KT 4SM -SN BR BKN014 OVC024 M05/M07 A3020 RMK AO2 SLP239 P0000 T10501067
KGSH 152240Z AUTO 18005KT 1 3/4SM -SN BR BKN014 OVC026 M05/M07 A3020 RMK AO2 P0000 T10501067
KGSH 152232Z AUTO 18004KT 2SM -SN BR FEW018 OVC025 M05/M07 A3019 RMK AO2 P0000 T10501067
KGSH 152211Z AUTO 18004KT 1 1/4SM -SN BR SCT020 OVC027 M05/M07 A3018 RMK AO2 P0000 T10501072
KGSH 152153Z AUTO 18004KT 2 1/2SM -SN BR OVC018 M05/M07 A3018 RMK AO2 SLP235 P0000 T10501072
KGSH 152106Z AUTO 19007KT 3SM -SN OVC015 M05/M08 A3017 RMK AO2 P0000 T10501078
KGSH 152053Z AUTO 19008KT 2 1/2SM -SN OVC015 M05/M08 A3016 RMK AO2 SLP228 P0000 60000 T10501078 53005
KGSH 152023Z AUTO 19008KT 3SM -SN OVC016 M05/M08 A3015 RMK AO2 P0000 T10501078
KGSH 152011Z AUTO 19006KT 2 1/2SM -SN BR OVC016 M06/M08 A3015 RMK AO2 P0000 T10561078
KGSH 151953Z AUTO 20008KT 1 3/4SM -SN OVC014 M06/M08 A3015 RMK AO2 SNE1858B20 SLP223 P0000 T10561083
KGSH 151949Z AUTO 20009KT 2SM -SN OVC014 M06/M08 A3015 RMK AO2 SNE1858B20 P0000
KGSH 151918Z AUTO 18009KT 5SM HZ OVC014 M06/M08 A3015 RMK AO2 SNE1858 P0000 T10561083
KGSH 151853Z AUTO 19007KT 4SM -SN OVC015 M06/M08 A3015 RMK AO2 SNE14B37 SLP222 P0000 T10561083
KGSH 151753Z AUTO 17011KT 3SM -SN OVC016 M06/M09 A3015 RMK AO2 SLP225 P0000 60001 T10611089 11061 21089 58016
KGSH 151716Z AUTO 17009KT 3SM -SN BKN016 OVC036 M06/M09 A3017 RMK AO2 P0000 T10611094
KGSH 151653Z AUTO 16009KT 2 1/2SM -SN FEW018 BKN037 OVC045 M07/M09 A3018 RMK AO2 SLP235 P0000 T10671094
KGSH 151637Z AUTO 15008KT 2SM -SN BKN035 OVC046 M07/M09 A3019 RMK AO2 P0000 T10671094
KGSH 151630Z AUTO 14008KT 1 3/4SM -SN BR BKN033 OVC046 M07/M09 A3019 RMK AO2 P0000 T10721094
KGSH 151553Z AUTO 14009KT 1 1/4SM -SN BKN025 OVC033 M07/M10 A3020 RMK AO2 SLP240 P0000 T10721100
KGSH 151524Z AUTO 14009KT 1SM -SN BR OVC021 M08/M10 A3020 RMK AO2 P0000 T10781100
KGSH 151511Z AUTO 14011KT 3/4SM -SN BR VV020 M08/M10 A3020 RMK AO2 P0000 T10781100
KGSH 151503Z AUTO 13011KT 1SM -SN BR OVC021 M08/M10 A3020 RMK AO2 P0000 T10781100
KGSH 151453Z AUTO 14010KT 3/4SM -SN BR OVC021 M08/M11 A3020 RMK AO2 SLP242 P0000 60001 T10831106 58002
KGSH 151448Z AUTO 14009KT 3/4SM -SN BR OVC021 M08/M11 A3020 RMK AO2 P0000
KGSH 151441Z AUTO 14009KT 1SM -SN BR OVC021 M08/M11 A3021 RMK AO2 P0000 T10831106
KGSH 151430Z AUTO 13010KT 3/4SM -SN BR VV019 M08/M11 A3021 RMK AO2 P0000 T10831106
KGSH 151413Z AUTO 13009KT 3/4SM -SN BR OVC023 M08/M11 A3021 RMK AO2 P0000 T10831106
KGSH 151353Z AUTO 13010KT 1 1/2SM -SN BR OVC027 M08/M11 A3021 RMK AO2 SLP244 P0001 T10831106
KGSH 151350Z AUTO 13009KT 1 1/2SM -SN BR OVC027 M08/M11 A3021 RMK AO2 P0001
KGSH 151340Z AUTO 13008KT 3/4SM -SN BR OVC021 M09/M11 A3021 RMK AO2 P0001 T10891106
KGSH 151332Z AUTO 13009KT 1/2SM SN FZFG VV013 M09/M11 A3021 RMK AO2 P0001 T10891106
KGSH 151319Z AUTO 13009KT 1/2SM SN FZFG VV016 M09/M11 A3021 RMK AO2 P0001 T10891111
KGSH 151259Z AUTO 14010KT 1SM -SN BR VV015 M09/M11 A3022 RMK AO2 P0001 T10891111
KGSH 151253Z AUTO 13010KT 3/4SM -SN BR VV011 M09/M11 A3022 RMK AO2 SLP249 P0000 T10891111
KGSH 151234Z AUTO 14009KT 3/4SM -SN BR VV014 M09/M11 A3022 RMK AO2 P0000 T10891111
KGSH 151153Z AUTO 14011KT 1SM -SN BR VV016 M09/M11 A3022 RMK AO2 SLP250 P0000 60000 T10891111 11089 21094 56017
KGSH 151149Z AUTO 14012KT 1SM -SN BR VV015 M09/M11 A3022 RMK AO2 P0000
KGSH 151139Z AUTO 14011KT 3/4SM -SN BR VV014 M09/M11 A3022 RMK AO2 P0000 T10891111
KGSH 151120Z AUTO 13010KT 1 1/2SM -SN OVC022 M09/M12 A3022 RMK AO2 P0000 T10891117